Time;durP1;ratioP1;P1;durP2;ratioP2;P2;SDS_P1;SDS_P2;PMS_P1;PMS_P2;Temp;Humidity;BMP_temperature;BMP_pressure;BME280_temperature;BME280_humidity;BME280_pressure;Samples;Min_cycle;Max_cycle;Signal;HPM_P1;HPM_P2
2022/08/04 00:01:11;;;;;;;7.03;2.70;;;29.10;68.70;;;;;;5033667;28;20026;-76
2022/08/04 00:03:59;;;;;;;6.38;2.63;;;29.10;69.10;;;;;;5032585;28;20053;-78
2022/08/04 00:06:32;;;;;;;6.63;2.25;;;29.10;69.40;;;;;;5033801;28;20067;-77
2022/08/04 00:09:06;;;;;;;9.23;2.87;;;29.00;69.80;;;;;;5033971;28;20475;-77
2022/08/04 00:11:32;;;;;;;6.65;2.83;;;29.00;69.50;;;;;;5033664;28;20260;-74
2022/08/04 00:14:11;;;;;;;4.88;2.35;;;29.00;69.80;;;;;;5033819;28;20041;-76
2022/08/04 00:16:39;;;;;;;6.35;2.65;;;29.00;69.70;;;;;;5033635;28;20017;-77
2022/08/04 00:19:26;;;;;;;4.60;2.55;;;29.00;69.50;;;;;;5033703;28;20026;-77
2022/08/04 00:21:58;;;;;;;4.50;2.67;;;29.10;69.70;;;;;;5033606;28;20037;-76
2022/08/04 00:24:24;;;;;;;5.13;2.50;;;29.10;69.50;;;;;;5033503;28;20029;-76
2022/08/04 00:26:53;;;;;;;6.13;2.80;;;29.10;69.80;;;;;;5033398;28;20466;-76
2022/08/04 00:29:20;;;;;;;5.50;2.60;;;29.10;70.00;;;;;;5033356;28;20017;-75
2022/08/04 00:31:46;;;;;;;6.30;2.50;;;29.10;69.80;;;;;;5033325;28;20078;-76
2022/08/04 00:34:13;;;;;;;6.68;2.70;;;29.10;69.40;;;;;;5033250;28;20096;-77
2022/08/04 00:36:42;;;;;;;6.53;2.70;;;29.10;69.60;;;;;;5033425;28;20033;-76
2022/08/04 00:39:12;;;;;;;4.82;2.75;;;29.10;69.80;;;;;;5033605;28;20123;-76
2022/08/04 00:41:55;;;;;;;6.03;2.50;;;29.10;70.20;;;;;;5033155;28;20053;-77
2022/08/04 00:44:45;;;;;;;4.05;2.30;;;29.10;70.60;;;;;;5033139;28;20499;-77
2022/08/04 00:47:35;;;;;;;4.78;2.55;;;29.10;70.50;;;;;;5033153;28;20022;-76
2022/08/04 00:50:07;;;;;;;5.07;2.45;;;29.10;70.30;;;;;;5033173;28;20033;-74
2022/08/04 00:52:46;;;;;;;5.32;2.67;;;29.10;70.00;;;;;;5033064;28;20026;-76
2022/08/04 00:55:40;;;;;;;6.13;2.38;;;29.10;70.30;;;;;;5032963;28;20029;-77
2022/08/04 00:58:41;;;;;;;7.65;2.38;;;29.10;70.90;;;;;;5032097;28;20018;-77
2022/08/04 01:01:24;;;;;;;6.25;2.50;;;29.10;71.00;;;;;;5033369;28;20060;-76
2022/08/04 01:03:54;;;;;;;7.38;2.50;;;29.00;71.20;;;;;;5033703;28;20037;-77
2022/08/04 01:06:36;;;;;;;7.43;2.85;;;29.00;71.20;;;;;;5033516;28;20041;-73
2022/08/04 01:09:59;;;;;;;5.78;2.47;;;29.00;71.50;;;;;;5032817;28;20045;-75
2022/08/04 01:13:12;;;;;;;6.45;2.45;;;29.00;71.50;;;;;;5030697;28;20045;-77
2022/08/04 01:15:53;;;;;;;5.45;2.40;;;29.00;71.70;;;;;;5021926;28;20538;-75
2022/08/04 01:18:33;;;;;;;4.80;2.50;;;28.90;72.10;;;;;;5032624;28;20116;-77
2022/08/04 01:21:28;;;;;;;4.90;2.55;;;28.90;72.10;;;;;;5032865;28;20026;-77
2022/08/04 01:24:31;;;;;;;7.18;2.60;;;28.90;72.30;;;;;;5031760;28;20402;-78
2022/08/04 01:27:05;;;;;;;7.53;2.67;;;28.90;72.50;;;;;;5032730;28;20434;-76
2022/08/04 01:29:43;;;;;;;6.32;2.63;;;28.90;72.90;;;;;;5032652;28;20510;-76
2022/08/04 01:32:46;;;;;;;7.65;2.75;;;28.90;74.10;;;;;;5032589;28;20022;-76
2022/08/04 01:35:23;;;;;;;4.45;2.42;;;28.90;74.20;;;;;;5032618;28;20025;-78
2022/08/04 01:38:11;;;;;;;6.18;2.72;;;28.80;73.60;;;;;;5032625;28;20470;-77
2022/08/04 01:40:38;;;;;;;6.13;2.58;;;28.80;74.10;;;;;;5032615;28;20038;-75
2022/08/04 01:43:04;;;;;;;5.43;2.30;;;28.80;75.00;;;;;;5032530;28;20386;-75
2022/08/04 01:45:30;;;;;;;5.60;2.40;;;28.80;75.30;;;;;;5032565;28;20091;-76
2022/08/04 01:47:57;;;;;;;5.55;2.63;;;28.80;75.70;;;;;;5032748;28;20029;-78
2022/08/04 01:50:25;;;;;;;9.45;3.25;;;28.80;76.00;;;;;;5032547;28;20018;-77
2022/08/04 01:52:53;;;;;;;5.57;2.28;;;28.80;76.50;;;;;;5032536;28;20034;-78
2022/08/04 01:55:20;;;;;;;7.10;3.15;;;28.80;76.70;;;;;;5032274;28;20029;-73
2022/08/04 01:57:48;;;;;;;5.22;2.70;;;28.80;76.80;;;;;;5032561;28;20040;-77
2022/08/04 02:00:28;;;;;;;5.82;2.80;;;28.80;77.30;;;;;;5031203;28;20021;-75
2022/08/04 02:02:55;;;;;;;5.70;2.60;;;28.70;76.30;;;;;;5032471;28;20036;-74
2022/08/04 02:05:23;;;;;;;5.53;2.88;;;28.70;78.10;;;;;;5032597;28;20037;-75
2022/08/04 02:08:11;;;;;;;5.03;2.78;;;28.70;78.60;;;;;;5032374;28;20025;-75
2022/08/04 02:11:14;;;;;;;7.18;3.33;;;28.70;77.80;;;;;;5035005;28;20025;-74
2022/08/04 02:13:53;;;;;;;7.13;3.33;;;28.70;78.40;;;;;;5035985;28;20114;-77
2022/08/04 02:16:31;;;;;;;10.13;2.92;;;28.60;80.00;;;;;;5035942;28;20466;-75
2022/08/04 02:19:03;;;;;;;6.35;3.17;;;28.60;79.50;;;;;;5036132;28;20057;-75
2022/08/04 02:21:31;;;;;;;5.28;3.25;;;28.60;79.80;;;;;;5036024;28;20110;-75
2022/08/04 02:24:13;;;;;;;8.77;2.80;;;28.60;81.00;;;;;;5035841;28;20585;-74
2022/08/04 02:26:41;;;;;;;5.68;2.80;;;28.60;81.20;;;;;;5035723;28;20447;-74
2022/08/04 02:29:19;;;;;;;6.90;2.80;;;28.60;81.70;;;;;;5035843;28;20470;-74
2022/08/04 02:31:55;;;;;;;7.13;3.25;;;28.60;81.70;;;;;;5035860;28;20075;-77
2022/08/04 02:34:27;;;;;;;5.72;2.65;;;28.60;81.70;;;;;;5035835;28;20467;-76
2022/08/04 02:36:54;;;;;;;5.75;2.63;;;28.60;81.70;;;;;;5035466;28;20382;-76
2022/08/04 02:39:22;;;;;;;6.15;2.90;;;28.60;82.00;;;;;;5035754;28;20053;-77
2022/08/04 02:41:49;;;;;;;5.53;2.72;;;28.60;82.10;;;;;;5035430;28;20514;-77
2022/08/04 02:44:21;;;;;;;6.30;3.28;;;28.60;82.20;;;;;;5035559;28;20053;-75
2022/08/04 02:46:50;;;;;;;7.85;3.10;;;28.50;82.60;;;;;;5035326;28;20104;-74
2022/08/04 02:49:17;;;;;;;5.80;2.72;;;28.50;83.20;;;;;;5035521;28;20025;-78
2022/08/04 02:51:46;;;;;;;7.47;3.05;;;28.50;83.20;;;;;;5035316;28;20047;-77
2022/08/04 02:54:16;;;;;;;5.95;3.20;;;28.50;83.60;;;;;;5035315;28;20048;-78
2022/08/04 02:56:44;;;;;;;8.63;2.78;;;28.50;83.70;;;;;;5035260;28;20060;-77
2022/08/04 02:59:11;;;;;;;5.60;3.08;;;28.40;83.70;;;;;;5035227;28;20029;-73
2022/08/04 03:01:38;;;;;;;6.22;3.00;;;28.50;84.00;;;;;;5035077;28;20083;-76
2022/08/04 03:04:16;;;;;;;6.43;3.00;;;28.40;84.00;;;;;;5035260;28;20428;-76
2022/08/04 03:06:45;;;;;;;6.45;2.95;;;28.40;84.90;;;;;;5035082;28;20033;-74
2022/08/04 03:09:23;;;;;;;6.53;3.05;;;28.40;85.40;;;;;;5034998;28;20113;-76
2022/08/04 03:11:55;;;;;;;7.18;3.70;;;28.30;85.20;;;;;;5035179;28;20117;-75
2022/08/04 03:14:33;;;;;;;6.77;3.33;;;28.30;85.40;;;;;;5036029;28;20018;-75
2022/08/04 03:17:30;;;;;;;8.38;3.35;;;28.30;86.20;;;;;;5038684;28;20028;-75
2022/08/04 03:20:33;;;;;;;6.20;3.10;;;28.20;84.10;;;;;;5034975;28;20021;-76
2022/08/04 03:23:04;;;;;;;5.60;2.70;;;28.20;79.60;;;;;;5034271;28;20084;-73
2022/08/04 03:26:02;;;;;;;7.85;3.38;;;28.20;75.60;;;;;;5034524;28;20116;-76
2022/08/04 03:28:40;;;;;;;9.63;3.53;;;28.20;73.40;;;;;;5032818;28;20153;-75
2022/08/04 03:31:16;;;;;;;6.40;3.50;;;28.20;72.60;;;;;;5034643;28;20033;-76
2022/08/04 03:33:48;;;;;;;9.35;3.35;;;28.20;72.00;;;;;;5034558;28;20402;-77
2022/08/04 03:36:32;;;;;;;9.65;3.38;;;28.20;71.00;;;;;;5034349;28;20119;-78
2022/08/04 03:39:40;;;;;;;8.35;3.35;;;28.20;69.80;;;;;;5034515;28;20045;-75
2022/08/04 03:42:38;;;;;;;8.25;3.35;;;28.10;69.30;;;;;;5033704;28;20041;-76
2022/08/04 03:45:26;;;;;;;7.53;3.30;;;28.10;69.30;;;;;;5034177;28;20053;-78
2022/08/04 03:48:12;;;;;;;7.90;3.72;;;28.10;68.70;;;;;;5034464;28;20382;-74
2022/08/04 03:54:04;;;;;;;12.23;4.05;;;28.10;67.20;;;;;;5034137;28;20152;-77
2022/08/04 03:56:42;;;;;;;8.50;3.85;;;28.10;65.60;;;;;;5034567;28;20180;-78
2022/08/04 03:59:13;;;;;;;9.40;4.05;;;28.10;64.90;;;;;;5034131;28;20021;-78
2022/08/04 04:01:55;;;;;;;7.65;4.03;;;28.10;63.60;;;;;;5034075;28;20326;-76
2022/08/04 04:04:29;;;;;;;16.73;3.90;;;28.10;63.50;;;;;;5033939;28;20041;-75
2022/08/04 04:07:37;;;;;;;9.02;3.88;;;28.10;62.70;;;;;;5033768;28;20029;-77
2022/08/04 04:10:18;;;;;;;9.43;3.65;;;28.10;61.90;;;;;;5033222;28;20046;-77
2022/08/04 04:12:58;;;;;;;7.80;3.72;;;28.10;61.40;;;;;;5033595;28;20030;-77
2022/08/04 04:15:33;;;;;;;12.30;3.95;;;28.00;60.50;;;;;;5033421;28;20045;-76
2022/08/04 04:18:17;;;;;;;6.05;3.63;;;28.00;59.70;;;;;;5033815;28;20025;-78
2022/08/04 04:20:52;;;;;;;6.97;3.83;;;27.90;59.10;;;;;;5033829;28;20458;-77
2022/08/04 04:23:26;;;;;;;7.43;3.63;;;27.90;58.90;;;;;;5033593;28;20478;-76
2022/08/04 04:26:13;;;;;;;15.98;4.30;;;27.90;58.50;;;;;;5033232;28;20043;-76
2022/08/04 04:28:51;;;;;;;7.68;3.67;;;27.90;57.40;;;;;;5033610;28;20032;-76
2022/08/04 04:31:36;;;;;;;9.48;3.65;;;27.90;57.50;;;;;;5033357;28;20029;-78
2022/08/04 04:34:49;;;;;;;8.60;3.53;;;27.90;56.10;;;;;;5033190;28;20206;-78
2022/08/04 04:37:36;;;;;;;8.88;3.70;;;27.90;55.60;;;;;;5031932;28;20028;-76
2022/08/04 04:40:09;;;;;;;9.15;4.18;;;28.00;54.80;;;;;;5033089;28;20053;-77
2022/08/04 04:42:54;;;;;;;12.40;3.97;;;27.90;56.20;;;;;;5032947;28;20060;-77
2022/08/04 04:45:44;;;;;;;9.38;4.00;;;27.90;54.90;;;;;;5032615;28;20124;-76
2022/08/04 04:48:24;;;;;;;11.30;4.22;;;27.90;55.20;;;;;;5032836;28;20069;-79
2022/08/04 04:51:14;;;;;;;6.85;3.63;;;28.00;54.80;;;;;;5033286;28;20041;-70
2022/08/04 04:54:01;;;;;;;9.38;3.65;;;27.90;55.00;;;;;;5033125;28;20144;-69
2022/08/04 04:56:29;;;;;;;8.88;3.72;;;27.90;53.70;;;;;;5032958;28;20108;-72
2022/08/04 04:58:57;;;;;;;6.53;3.47;;;27.90;54.80;;;;;;5033488;28;20052;-69
2022/08/04 05:01:41;;;;;;;9.27;3.85;;;27.90;54.70;;;;;;5032908;28;20083;-71
2022/08/04 05:04:25;;;;;;;;;;;27.90;54.80;;;;;;5033403;28;20029;-72
2022/08/04 05:07:10;;;;;;;7.45;3.85;;;27.90;52.80;;;;;;5032863;28;19984;-71
2022/08/04 05:10:26;;;;;;;8.88;3.42;;;28.00;53.10;;;;;;5033435;28;20163;-71
2022/08/04 05:13:10;;;;;;;8.50;3.97;;;28.00;52.60;;;;;;5031228;28;20465;-71
2022/08/04 05:15:41;;;;;;;10.23;4.18;;;28.00;54.40;;;;;;5033247;28;20079;-70
2022/08/04 05:18:13;;;;;;;7.18;3.45;;;28.00;54.20;;;;;;5033181;28;20105;-70
2022/08/04 05:20:44;;;;;;;9.23;3.40;;;28.10;54.10;;;;;;5033364;28;20025;-70
2022/08/04 05:23:33;;;;;;;9.50;3.95;;;28.20;53.80;;;;;;5033260;28;20037;-70
2022/08/04 05:26:06;;;;;;;9.38;4.25;;;28.20;53.50;;;;;;5032971;28;20386;-70
2022/08/04 05:28:44;;;;;;;7.10;4.07;;;28.40;53.00;;;;;;5031677;28;20029;-70
2022/08/04 05:31:24;;;;;;;11.88;4.07;;;28.70;52.40;;;;;;5033045;28;20025;-70
2022/08/04 05:34:14;;;;;;;15.43;4.28;;;29.00;50.10;;;;;;5033422;28;20034;-71
2022/08/04 05:36:45;;;;;;;8.07;3.60;;;29.20;49.70;;;;;;5033074;28;20025;-70
2022/08/04 05:39:23;;;;;;;9.57;3.90;;;29.40;50.80;;;;;;5033120;28;20355;-70
2022/08/04 05:41:49;;;;;;;17.05;5.35;;;29.60;48.70;;;;;;5031729;28;20056;-70
2022/08/04 05:44:17;;;;;;;10.73;3.88;;;29.90;49.60;;;;;;5033671;28;20113;-69
2022/08/04 05:46:48;;;;;;;9.88;4.20;;;30.00;49.10;;;;;;5037010;28;20157;-69
2022/08/04 05:49:15;;;;;;;11.48;4.25;;;30.30;47.70;;;;;;5036870;28;20041;-70
2022/08/04 05:51:42;;;;;;;10.68;3.75;;;30.30;48.20;;;;;;5036738;28;20025;-70
2022/08/04 05:54:09;;;;;;;9.15;4.50;;;30.50;48.00;;;;;;5036933;28;20033;-70
2022/08/04 05:56:37;;;;;;;12.38;4.28;;;30.60;47.80;;;;;;5036865;28;20013;-80
2022/08/04 05:59:04;;;;;;;7.72;3.92;;;30.80;47.40;;;;;;5036203;28;20039;-78
2022/08/04 06:01:31;;;;;;;12.88;4.32;;;30.90;47.70;;;;;;5035325;28;20101;-79
2022/08/04 06:03:59;;;;;;;8.30;4.00;;;31.10;47.00;;;;;;5036747;28;20036;-72
2022/08/04 06:06:25;;;;;;;17.35;4.32;;;31.40;46.60;;;;;;5036082;28;20026;-71
2022/08/04 06:08:52;;;;;;;6.97;3.13;;;31.60;46.10;;;;;;5036585;28;20096;-77
2022/08/04 06:11:20;;;;;;;11.90;3.53;;;31.80;45.80;;;;;;5037324;28;20026;-75
2022/08/04 06:14:07;;;;;;;9.32;3.40;;;32.10;45.10;;;;;;5036639;28;20030;-78
2022/08/04 06:16:42;;;;;;;6.82;3.50;;;32.30;43.70;;;;;;5035827;28;20076;-72
2022/08/04 06:19:11;;;;;;;9.32;4.05;;;32.40;43.90;;;;;;5036823;28;20022;-72
2022/08/04 06:21:41;;;;;;;8.85;3.63;;;32.50;44.70;;;;;;5035957;28;20025;-74
2022/08/04 06:24:11;;;;;;;10.85;3.72;;;32.70;45.40;;;;;;5035417;28;20056;-74
2022/08/04 06:26:39;;;;;;;14.05;3.78;;;32.80;44.80;;;;;;5035391;28;20079;-74
2022/08/04 06:29:15;;;;;;;8.82;3.60;;;33.00;44.60;;;;;;5035503;28;20379;-73
2022/08/04 06:31:56;;;;;;;9.63;3.83;;;32.90;44.60;;;;;;5035309;28;20036;-74
2022/08/04 06:34:24;;;;;;;10.02;3.40;;;33.00;44.40;;;;;;5035517;28;20494;-74
2022/08/04 06:36:52;;;;;;;8.75;3.30;;;33.20;44.10;;;;;;5035226;28;20181;-73
2022/08/04 06:39:20;;;;;;;14.38;3.85;;;33.30;44.10;;;;;;5033912;28;20022;-73
2022/08/04 06:41:47;;;;;;;11.48;3.40;;;33.50;43.50;;;;;;5035044;28;20111;-73
2022/08/04 06:44:14;;;;;;;9.07;3.50;;;33.70;43.10;;;;;;5035119;28;20029;-73
2022/08/04 06:46:42;;;;;;;15.25;3.30;;;33.80;42.60;;;;;;5034838;28;20475;-74
2022/08/04 06:49:09;;;;;;;6.63;3.22;;;33.90;42.30;;;;;;5035207;28;20022;-74
2022/08/04 06:51:36;;;;;;;5.22;3.03;;;33.90;42.20;;;;;;5035038;28;20090;-73
2022/08/04 06:54:03;;;;;;;9.00;3.40;;;33.90;42.00;;;;;;5035230;28;20028;-74
2022/08/04 06:56:32;;;;;;;10.13;3.15;;;33.90;42.50;;;;;;5033449;28;20113;-74
2022/08/04 06:59:00;;;;;;;9.35;3.42;;;34.10;42.30;;;;;;5034544;28;20047;-73
2022/08/04 07:01:28;;;;;;;10.90;3.88;;;34.10;41.80;;;;;;5034643;28;20064;-73
2022/08/04 07:03:54;;;;;;;9.90;3.85;;;34.20;42.20;;;;;;5034954;28;20036;-74
2022/08/04 07:06:24;;;;;;;14.02;4.65;;;34.30;41.70;;;;;;5034360;28;20037;-74
2022/08/04 07:08:50;;;;;;;15.10;4.35;;;34.50;42.30;;;;;;5034442;28;20113;-72
2022/08/04 07:11:18;;;;;;;8.65;4.00;;;34.60;41.30;;;;;;5033004;28;20025;-72
2022/08/04 07:13:45;;;;;;;11.55;3.50;;;34.50;41.20;;;;;;5034379;28;20060;-74
2022/08/04 07:16:13;;;;;;;10.38;3.30;;;34.40;41.40;;;;;;5033127;28;20083;-74
2022/08/04 07:18:39;;;;;;;12.50;4.32;;;34.40;41.60;;;;;;5034399;28;20018;-72
2022/08/04 07:21:06;;;;;;;10.38;3.30;;;34.60;41.30;;;;;;5033954;28;20030;-71
2022/08/04 07:23:32;;;;;;;8.75;3.88;;;34.60;42.10;;;;;;5034090;28;20021;-73
2022/08/04 07:25:58;;;;;;;14.63;4.10;;;34.60;42.30;;;;;;5033843;28;20045;-72
2022/08/04 07:28:26;;;;;;;8.48;2.70;;;34.60;42.50;;;;;;5034558;28;20530;-73
2022/08/04 07:30:53;;;;;;;10.05;3.35;;;34.60;42.50;;;;;;5033924;28;20429;-73
2022/08/04 07:33:19;;;;;;;7.50;3.90;;;34.50;42.40;;;;;;5033716;28;20018;-75
2022/08/04 07:35:48;;;;;;;11.43;3.63;;;34.50;42.40;;;;;;5033878;28;20029;-74
2022/08/04 07:38:13;;;;;;;12.73;4.25;;;34.60;42.40;;;;;;5033778;28;20025;-73
2022/08/04 07:40:40;;;;;;;10.68;3.72;;;34.60;42.40;;;;;;5033758;28;20121;-73
2022/08/04 07:43:06;;;;;;;7.55;3.10;;;34.60;42.10;;;;;;5034116;28;20041;-73
2022/08/04 07:45:32;;;;;;;7.32;3.38;;;34.50;42.20;;;;;;5033544;28;20403;-73
2022/08/04 07:47:58;;;;;;;10.02;4.13;;;34.60;42.50;;;;;;5033456;28;20041;-72
2022/08/04 07:50:25;;;;;;;16.73;3.92;;;34.60;42.40;;;;;;5033510;28;20457;-72
2022/08/04 07:52:51;;;;;;;6.97;3.50;;;34.60;42.20;;;;;;5033408;28;20032;-73
2022/08/04 07:55:18;;;;;;;7.50;3.20;;;34.70;42.10;;;;;;5033275;28;20021;-73
2022/08/04 07:57:44;;;;;;;5.97;3.20;;;34.80;42.00;;;;;;5033448;28;20072;-74
2022/08/04 08:00:13;;;;;;;8.38;3.28;;;34.80;42.00;;;;;;5033284;28;20022;-72
2022/08/04 08:02:40;;;;;;;7.03;3.25;;;34.80;42.10;;;;;;5033417;28;20029;-72
2022/08/04 08:05:12;;;;;;;14.80;3.78;;;34.80;42.00;;;;;;5032971;28;20513;-74
2022/08/04 08:07:38;;;;;;;9.80;3.20;;;34.70;42.70;;;;;;5031738;28;20033;-73
2022/08/04 08:10:10;;;;;;;13.80;3.88;;;34.70;42.10;;;;;;5033316;28;20029;-73
2022/08/04 08:12:37;;;;;;;8.30;3.17;;;34.70;42.10;;;;;;5032952;28;20107;-73
2022/08/04 08:15:05;;;;;;;10.02;3.30;;;34.60;41.90;;;;;;5032853;28;20037;-72
2022/08/04 08:17:31;;;;;;;14.25;3.60;;;34.60;42.20;;;;;;5033152;28;20024;-75
2022/08/04 08:19:56;;;;;;;7.13;3.08;;;34.60;42.40;;;;;;5033067;28;20025;-73
2022/08/04 08:22:22;;;;;;;11.85;3.45;;;34.50;42.40;;;;;;5032868;28;20441;-74
2022/08/04 08:24:48;;;;;;;15.02;3.35;;;34.40;42.50;;;;;;5032796;28;20077;-74
2022/08/04 08:27:14;;;;;;;12.38;3.33;;;34.30;42.50;;;;;;5033208;28;20017;-73
2022/08/04 08:29:40;;;;;;;6.75;3.00;;;34.30;42.80;;;;;;5032662;28;20367;-72
2022/08/04 08:32:11;;;;;;;8.65;3.28;;;34.20;42.60;;;;;;5032844;28;20033;-73
2022/08/04 08:34:38;;;;;;;10.23;3.22;;;34.10;42.80;;;;;;5032956;28;20026;-73
2022/08/04 08:37:33;;;;;;;11.35;3.80;;;34.00;43.10;;;;;;5032535;28;20076;-74
2022/08/04 08:40:17;;;;;;;11.00;3.17;;;34.00;43.60;;;;;;5032470;28;20021;-73
2022/08/04 08:43:12;;;;;;;7.78;3.10;;;33.90;43.90;;;;;;5032024;28;20508;-72
2022/08/04 08:45:59;;;;;;;10.27;3.00;;;33.90;43.90;;;;;;5031968;28;20105;-74
2022/08/04 08:49:00;;;;;;;8.00;3.00;;;33.80;44.10;;;;;;5032302;28;20058;-74
2022/08/04 08:51:50;;;;;;;12.82;3.67;;;33.70;44.30;;;;;;5031479;28;20501;-74
2022/08/04 08:54:20;;;;;;;16.05;3.60;;;33.60;44.40;;;;;;5031635;28;20093;-73
2022/08/04 08:57:04;;;;;;;12.18;3.85;;;33.60;44.00;;;;;;5032359;28;20116;-73
2022/08/04 08:59:53;;;;;;;8.88;3.30;;;33.60;44.60;;;;;;5032251;28;20064;-72
2022/08/04 09:03:08;;;;;;;8.38;3.13;;;33.60;44.40;;;;;;5030746;28;20042;-72
2022/08/04 09:05:49;;;;;;;8.95;3.15;;;33.60;44.90;;;;;;5032011;28;20092;-72
2022/08/04 09:08:41;;;;;;;10.65;2.55;;;33.60;45.10;;;;;;5032138;28;20086;-74
2022/08/04 09:11:42;;;;;;;7.03;2.70;;;33.60;44.70;;;;;;5032212;28;20033;-73
2022/08/04 09:14:19;;;;;;;9.75;3.28;;;33.50;44.90;;;;;;5032525;28;20106;-74
2022/08/04 09:17:09;;;;;;;9.75;3.40;;;33.50;44.60;;;;;;5032153;28;20058;-74
2022/08/04 09:20:00;;;;;;;7.88;2.90;;;33.60;44.40;;;;;;5031584;28;20049;-74
2022/08/04 09:22:50;;;;;;;8.65;2.90;;;33.60;44.80;;;;;;5032409;28;20049;-72
2022/08/04 09:25:31;;;;;;;9.23;3.30;;;33.60;44.80;;;;;;5031760;28;20449;-72
2022/08/04 09:28:19;;;;;;;10.35;3.28;;;33.60;44.90;;;;;;5032069;28;20087;-74
2022/08/04 09:30:55;;;;;;;8.02;3.85;;;33.60;45.70;;;;;;5032404;28;20029;-67
2022/08/04 09:33:36;;;;;;;13.30;3.35;;;33.70;44.80;;;;;;5031838;28;20082;-68
2022/08/04 09:36:38;;;;;;;12.98;3.78;;;33.70;45.10;;;;;;5031828;28;20029;-65
2022/08/04 09:39:21;;;;;;;9.73;3.15;;;33.70;44.70;;;;;;5031827;28;20334;-66
2022/08/04 09:41:59;;;;;;;9.40;3.10;;;33.70;45.00;;;;;;5031721;28;20111;-70
2022/08/04 09:44:31;;;;;;;7.25;2.80;;;33.70;44.70;;;;;;5030228;28;20037;-70
2022/08/04 09:47:02;;;;;;;7.80;3.70;;;33.70;44.90;;;;;;5031586;28;20041;-69
2022/08/04 09:49:38;;;;;;;8.93;3.30;;;33.70;44.80;;;;;;5031790;28;20033;-70
2022/08/04 09:52:19;;;;;;;8.80;3.10;;;33.70;45.40;;;;;;5031969;28;20112;-70
2022/08/04 09:54:58;;;;;;;8.55;2.90;;;33.80;45.20;;;;;;5031807;28;20506;-71
2022/08/04 09:57:41;;;;;;;9.15;3.45;;;33.80;45.30;;;;;;5031933;28;20479;-73
2022/08/04 10:00:09;;;;;;;9.90;2.70;;;33.90;44.30;;;;;;5031689;28;20021;-73
2022/08/04 10:02:38;;;;;;;13.50;2.72;;;33.90;44.30;;;;;;5031648;28;20344;-72
2022/08/04 10:05:10;;;;;;;9.13;3.38;;;33.90;44.20;;;;;;5031573;28;20052;-73
2022/08/04 10:07:56;;;;;;;7.43;2.92;;;33.90;43.40;;;;;;5032214;28;20025;-68
2022/08/04 10:10:55;;;;;;;5.30;2.70;;;34.00;44.30;;;;;;5031885;28;20025;-68
2022/08/04 10:13:33;;;;;;;7.40;2.60;;;34.00;44.00;;;;;;5031657;28;20025;-76
2022/08/04 10:16:05;;;;;;;6.93;2.50;;;34.00;43.80;;;;;;5031539;28;20021;-72
2022/08/04 10:19:08;;;;;;;11.82;2.90;;;34.00;43.20;;;;;;5032171;28;20034;-72
2022/08/04 10:21:39;;;;;;;7.63;3.10;;;34.00;43.70;;;;;;5032245;28;20029;-76
2022/08/04 10:24:37;;;;;;;10.10;2.92;;;34.00;43.70;;;;;;5032970;28;20037;-77
2022/08/04 10:27:39;;;;;;;12.15;3.30;;;34.10;43.80;;;;;;5031349;28;20128;-74
2022/08/04 10:30:11;;;;;;;10.40;3.40;;;34.10;43.60;;;;;;5032275;28;20513;-75
2022/08/04 10:32:46;;;;;;;12.45;3.40;;;34.10;41.90;;;;;;5036010;28;20032;-73
2022/08/04 10:35:21;;;;;;;8.52;4.20;;;34.10;43.10;;;;;;5035901;28;20432;-75
2022/08/04 10:37:55;;;;;;;12.82;4.38;;;33.90;42.00;;;;;;5035440;28;20565;-73
2022/08/04 10:40:37;;;;;;;57.10;7.82;;;34.00;42.70;;;;;;5034868;28;20034;-68
2022/08/04 10:43:12;;;;;;;81.32;8.27;;;34.10;43.20;;;;;;5035141;28;20492;-67
2022/08/04 10:45:48;;;;;;;14.55;3.75;;;34.20;42.20;;;;;;5034801;28;20049;-67
2022/08/04 10:48:43;;;;;;;8.75;2.83;;;34.20;42.30;;;;;;5035220;28;20037;-67
2022/08/04 10:51:19;;;;;;;17.48;3.35;;;34.30;42.40;;;;;;5034708;28;20033;-67
2022/08/04 10:53:50;;;;;;;117.68;10.63;;;34.40;42.00;;;;;;5033626;28;20029;-74
2022/08/04 10:56:31;;;;;;;10.65;2.67;;;34.50;41.50;;;;;;5034869;28;20021;-70
2022/08/04 10:59:15;;;;;;;5.38;2.40;;;34.60;40.20;;;;;;5035207;28;20450;-72
2022/08/04 11:01:43;;;;;;;;;;;34.80;39.40;;;;;;5035484;28;20105;-74
2022/08/04 11:04:35;;;;;;;6.75;2.42;;;34.80;40.30;;;;;;5035573;28;19912;-71
2022/08/04 11:07:01;;;;;;;12.18;3.50;;;34.90;40.60;;;;;;5035088;28;20076;-77
2022/08/04 11:09:30;;;;;;;6.00;2.50;;;35.00;39.80;;;;;;5034532;28;20052;-72
2022/08/04 11:12:07;;;;;;;8.68;2.55;;;35.00;38.70;;;;;;5036000;28;20025;-70
2022/08/04 11:14:44;;;;;;;4.93;2.72;;;35.10;39.30;;;;;;5040825;28;20068;-70
2022/08/04 11:17:49;;;;;;;9.10;3.05;;;35.20;41.50;;;;;;5042489;28;20030;-72
2022/08/04 11:20:30;;;;;;;10.02;2.97;;;35.30;42.20;;;;;;5034410;28;20041;-69
2022/08/04 11:23:18;;;;;;;8.98;2.88;;;35.20;42.30;;;;;;5033093;28;20061;-73
2022/08/04 11:26:08;;;;;;;7.25;2.75;;;35.30;42.30;;;;;;5034068;28;20450;-71
2022/08/04 11:29:07;;;;;;;7.65;2.90;;;35.40;42.30;;;;;;5032580;28;20026;-72
2022/08/04 11:31:43;;;;;;;9.07;2.83;;;35.50;42.20;;;;;;5034313;28;20080;-70
2022/08/04 11:34:25;;;;;;;9.77;3.08;;;35.50;41.10;;;;;;5034620;28;20053;-72
2022/08/04 11:36:59;;;;;;;12.23;2.80;;;35.50;41.70;;;;;;5034265;28;20021;-73
2022/08/04 11:39:41;;;;;;;9.88;2.83;;;35.50;41.90;;;;;;5034358;28;20116;-72
2022/08/04 11:42:23;;;;;;;10.48;3.00;;;35.60;40.80;;;;;;5033345;28;20046;-73
2022/08/04 11:44:51;;;;;;;7.30;2.92;;;35.60;41.10;;;;;;5034171;28;20037;-73
2022/08/04 11:47:33;;;;;;;5.68;2.20;;;35.60;40.80;;;;;;5034282;28;20104;-73
2022/08/04 11:50:21;;;;;;;4.95;2.78;;;35.70;42.30;;;;;;5034019;28;20025;-71
2022/08/04 11:52:51;;;;;;;15.45;3.00;;;35.70;42.00;;;;;;5033944;28;20518;-71
2022/08/04 11:55:20;;;;;;;7.13;2.65;;;35.80;40.70;;;;;;5033864;28;20382;-72
2022/08/04 11:57:47;;;;;;;10.40;2.72;;;35.80;40.80;;;;;;5033924;28;20037;-70
2022/08/04 12:00:16;;;;;;;6.65;2.33;;;35.80;41.10;;;;;;5033945;28;20423;-72
2022/08/04 12:02:59;;;;;;;6.90;2.10;;;35.80;40.30;;;;;;5033689;28;20025;-71
2022/08/04 12:05:30;;;;;;;9.98;2.58;;;35.80;41.30;;;;;;5033601;28;20077;-71
2022/08/04 12:08:14;;;;;;;5.28;2.00;;;35.80;40.40;;;;;;5033594;28;20028;-69
2022/08/04 12:10:54;;;;;;;8.02;2.25;;;35.80;41.50;;;;;;5033822;28;20076;-72
2022/08/04 12:13:39;;;;;;;6.93;2.30;;;35.80;41.50;;;;;;5033452;28;20053;-70
2022/08/04 12:16:26;;;;;;;8.93;2.28;;;35.80;41.70;;;;;;5033368;28;20031;-71
2022/08/04 12:18:56;;;;;;;7.05;2.20;;;35.80;41.80;;;;;;5033624;28;20097;-70
2022/08/04 12:21:30;;;;;;;4.72;2.15;;;35.90;40.80;;;;;;5032996;28;20404;-71
2022/08/04 12:24:01;;;;;;;5.07;2.33;;;35.90;40.70;;;;;;5032904;28;20324;-71
2022/08/04 12:26:37;;;;;;;4.38;2.03;;;35.90;40.50;;;;;;5032919;28;20112;-71
2022/08/04 12:29:06;;;;;;;4.93;2.00;;;36.00;41.50;;;;;;5031552;28;20021;-71
2022/08/04 12:31:39;;;;;;;9.93;2.63;;;36.00;40.50;;;;;;5034322;28;20078;-72
2022/08/04 12:34:33;;;;;;;7.13;2.30;;;36.00;40.60;;;;;;5033613;28;20018;-71
2022/08/04 12:37:05;;;;;;;6.55;1.90;;;36.10;41.40;;;;;;5032614;28;20048;-72
2022/08/04 12:39:32;;;;;;;5.97;2.03;;;36.10;40.70;;;;;;5032996;28;20069;-70
2022/08/04 12:42:04;;;;;;;6.30;1.80;;;36.10;40.40;;;;;;5032480;28;20052;-70
2022/08/04 12:44:39;;;;;;;5.78;1.98;;;36.10;41.60;;;;;;5032742;28;20195;-70
2022/08/04 12:47:30;;;;;;;;;;;;;;;;;;;;;
2022/08/04 12:50:02;;;;;;;8.35;2.30;;;36.20;40.10;;;;;;5033690;28;20040;-70
2022/08/04 12:52:42;;;;;;;9.82;2.40;;;36.20;39.80;;;;;;5032149;28;20512;-71
2022/08/04 12:55:09;;;;;;;6.32;1.88;;;36.20;40.50;;;;;;5032245;28;20021;-70
2022/08/04 12:57:35;;;;;;;6.78;1.95;;;36.20;39.30;;;;;;5032404;28;20125;-70
2022/08/04 13:00:01;;;;;;;5.28;1.70;;;36.20;38.80;;;;;;5032360;28;20451;-70
2022/08/04 13:02:30;;;;;;;8.43;2.25;;;36.20;39.10;;;;;;5032213;28;20087;-70
2022/08/04 13:05:01;;;;;;;3.20;1.50;;;36.20;39.00;;;;;;5032103;28;20026;-70
2022/08/04 13:07:41;;;;;;;6.25;2.05;;;36.20;38.90;;;;;;5032462;28;20095;-75
2022/08/04 13:10:14;;;;;;;5.05;1.40;;;36.20;39.60;;;;;;5032439;28;20060;-76
2022/08/04 13:12:51;;;;;;;5.32;1.80;;;36.30;39.90;;;;;;5032794;28;20540;-79
2022/08/04 13:15:21;;;;;;;6.95;1.75;;;36.30;39.90;;;;;;5032955;28;20041;-79
2022/08/04 13:17:59;;;;;;;4.25;2.13;;;36.20;39.70;;;;;;5032610;28;20104;-78
2022/08/04 13:20:37;;;;;;;6.15;1.67;;;36.20;40.00;;;;;;5032094;28;20014;-79
2022/08/04 13:23:07;;;;;;;8.80;2.10;;;36.10;39.10;;;;;;5032048;28;20112;-78
2022/08/04 13:25:35;;;;;;;5.40;1.70;;;36.10;39.30;;;;;;5032750;28;20033;-78
2022/08/04 13:28:02;;;;;;;5.57;1.60;;;36.10;39.50;;;;;;5014204;28;20032;-80
2022/08/04 13:30:31;;;;;;;5.82;1.85;;;36.10;39.30;;;;;;5031533;28;20033;-77
2022/08/04 13:33:01;;;;;;;5.20;1.60;;;36.20;38.80;;;;;;5031909;28;20030;-78
2022/08/04 13:35:27;;;;;;;9.77;1.92;;;36.20;38.80;;;;;;5030277;28;20565;-76
2022/08/04 13:37:54;;;;;;;9.90;1.85;;;36.20;38.70;;;;;;5031683;28;20044;-78